Ash Flat, Arkansas
Current Conditions -  °F | °C
As of 5:15 AM on Friday 28 Nov 2014 (Local Time) from KBVX Reporting Station
Clear Clear  
Wind Chill: 28°   Ceiling: Unl
Heat Index: 34°   Visibility: 10mi
Dew Point: 27°   Wind: 7mph
Humidity: 75%   Direction: 160°SSE
Pressure: 30.35"   Gusts: NA
Location:  36.22°N, 91.61°W
Report Text: KBVX 281115Z AUTO 16006KT 10SM CLR 01/M03 A3035 RMK AO1
Loading
Personal Weather Stations






























Interactive Weather Map New forecast layout! Learn more

10-Day Weather Forecast

Advertisements
Track Severe Weather on mobile